Brindle Town, North Carolina
Current Conditions -  °F | °C
As of 12:55 PM on Friday 21 Nov 2014 (Local Time) from KMRN Reporting Station
Clear Clear  
Wind Chill: 53°   Ceiling: Unl
Heat Index: 53°   Visibility: 10mi
Dew Point:   Wind: 0mph
Humidity: 13%   Direction: NA
Pressure: 30.42"   Gusts: NA
Location:  35.7567°N, 81.7518°W
Report Text: KMRN 211755Z AUTO 00000KT 10SM CLR 12/M17 A3042 RMK AO2 T01161166 10116 21019
Loading
Personal Weather Stations






























Interactive Weather Map New forecast layout! Learn more

10-Day Weather Forecast

Advertisements
Track Severe Weather on mobile